Time;durP1;ratioP1;P1;durP2;ratioP2;P2;SDS_P1;SDS_P2;PMS_P1;PMS_P2;Temp;Humidity;BMP_temperature;BMP_pressure;BME280_temperature;BME280_humidity;BME280_pressure;Samples;Min_cycle;Max_cycle;Signal;HPM_P1;HPM_P2
2023/12/29 00:02:00;;;;;;;81.38;44.50;;;;;;;4.89;100.00;100674.50;5112088;28;20044;-44
2023/12/29 00:04:28;;;;;;;76.78;43.70;;;;;;;4.82;100.00;100676.44;5112242;28;20483;-42
2023/12/29 00:06:58;;;;;;;82.75;44.17;;;;;;;4.92;100.00;100682.31;5112355;28;20043;-46
2023/12/29 00:09:37;;;;;;;82.15;42.63;;;;;;;4.79;100.00;100678.34;5104533;28;20072;-42
2023/12/29 00:12:06;;;;;;;76.80;43.38;;;;;;;4.80;100.00;100674.78;5091458;28;20483;-43
2023/12/29 00:14:37;;;;;;;92.10;46.72;;;;;;;4.80;100.00;100669.50;5094349;28;20043;-44
2023/12/29 00:17:06;;;;;;;84.70;46.33;;;;;;;4.59;100.00;100671.84;5111974;28;20051;-44
2023/12/29 00:19:34;;;;;;;86.75;46.78;;;;;;;4.49;100.00;100667.75;5111781;28;20043;-42
2023/12/29 00:22:05;;;;;;;88.10;48.20;;;;;;;4.57;100.00;100657.81;5111508;28;20048;-44
2023/12/29 00:24:33;;;;;;;89.97;49.00;;;;;;;4.45;100.00;100663.47;5111550;28;20110;-43
2023/12/29 00:27:02;;;;;;;95.90;49.47;;;;;;;4.45;100.00;100658.19;5111387;28;20087;-42
2023/12/29 00:29:34;;;;;;;90.60;48.25;;;;;;;4.55;100.00;100642.94;5070840;28;20059;-43
2023/12/29 00:32:04;;;;;;;89.10;47.50;;;;;;;4.57;100.00;100641.97;5071000;28;20041;-43
2023/12/29 00:34:33;;;;;;;101.65;51.63;;;;;;;4.40;100.00;100646.88;5070713;28;20493;-49
2023/12/29 00:37:02;;;;;;;100.20;50.40;;;;;;;4.08;100.00;100641.63;5070895;28;20448;-42
2023/12/29 00:39:38;;;;;;;93.07;50.28;;;;;;;4.31;100.00;100649.78;5070850;28;20452;-44
2023/12/29 00:42:08;;;;;;;91.43;48.92;;;;;;;4.33;100.00;100653.22;5070685;28;20084;-42
2023/12/29 00:44:36;;;;;;;95.35;50.83;;;;;;;4.27;100.00;100662.22;5095753;28;20142;-43
2023/12/29 00:47:04;;;;;;;93.88;49.00;;;;;;;4.09;100.00;100660.06;5108101;28;20055;-42
2023/12/29 00:49:33;;;;;;;92.38;50.47;;;;;;;4.33;100.00;100663.78;5102203;28;20039;-44
2023/12/29 00:52:02;;;;;;;91.72;47.40;;;;;;;4.12;100.00;100644.13;5097899;28;20189;-42
2023/12/29 00:54:32;;;;;;;84.45;48.40;;;;;;;4.33;100.00;100647.94;5090895;28;20233;-43
2023/12/29 00:57:01;;;;;;;89.00;48.60;;;;;;;4.30;100.00;100648.03;5104925;28;20511;-42
2023/12/29 00:59:29;;;;;;;88.85;47.78;;;;;;;4.21;100.00;100645.66;5110977;28;20201;-45
2023/12/29 01:01:58;;;;;;;90.93;48.65;;;;;;;4.13;100.00;100650.28;5111078;28;20048;-44
2023/12/29 01:04:26;;;;;;;82.80;46.63;;;;;;;4.25;100.00;100645.56;5110395;28;20130;-43
2023/12/29 01:06:55;;;;;;;81.07;46.00;;;;;;;4.18;100.00;100640.47;5108919;28;20472;-42
2023/12/29 01:09:23;;;;;;;81.35;45.50;;;;;;;4.29;100.00;100648.97;5090155;28;20068;-43
2023/12/29 01:11:56;;;;;;;78.10;42.35;;;;;;;4.20;100.00;100651.84;5094849;28;20116;-43
2023/12/29 01:14:24;;;;;;;76.82;44.42;;;;;;;4.19;100.00;100655.41;5102053;28;20090;-44
2023/12/29 01:16:52;;;;;;;79.70;42.85;;;;;;;4.02;100.00;100647.94;5090420;28;20088;-43
2023/12/29 01:19:21;;;;;;;82.78;45.70;;;;;;;3.95;100.00;100649.00;5090156;28;20048;-42
2023/12/29 01:21:49;;;;;;;77.40;45.05;;;;;;;3.98;100.00;100647.16;5090484;28;20044;-44
2023/12/29 01:24:18;;;;;;;82.93;46.47;;;;;;;3.93;100.00;100649.03;5090161;28;20066;-43
2023/12/29 01:26:55;;;;;;;83.10;46.63;;;;;;;3.97;100.00;100650.72;5112911;28;20059;-43
2023/12/29 01:29:23;;;;;;;78.28;45.83;;;;;;;4.14;100.00;100655.50;5115010;28;20043;-43
2023/12/29 01:31:53;;;;;;;80.95;46.03;;;;;;;4.13;100.00;100645.00;5114902;28;20059;-44
2023/12/29 01:34:21;;;;;;;86.57;46.53;;;;;;;4.22;100.00;100655.31;5115012;28;20067;-43
2023/12/29 01:36:50;;;;;;;77.00;44.70;;;;;;;4.09;100.00;100635.44;5115174;28;20047;-43
2023/12/29 01:39:18;;;;;;;86.00;46.90;;;;;;;4.08;100.00;100631.94;5109501;28;20048;-43
2023/12/29 01:41:46;;;;;;;78.45;43.97;;;;;;;4.05;100.00;100636.41;5105674;28;20101;-42
2023/12/29 01:44:25;;;;;;;74.20;43.20;;;;;;;4.14;100.00;100630.88;5114818;28;20078;-44
2023/12/29 01:46:57;;;;;;;77.90;45.03;;;;;;;4.01;100.00;100625.09;5114851;28;20043;-43
2023/12/29 01:49:26;;;;;;;80.20;44.92;;;;;;;4.17;100.00;100620.25;5114531;28;20435;-43
2023/12/29 01:51:57;;;;;;;82.65;44.75;;;;;;;4.32;100.00;100622.44;5094442;28;20040;-43
2023/12/29 01:54:30;;;;;;;78.43;44.33;;;;;;;4.31;100.00;100620.72;5094128;28;20161;-43
2023/12/29 01:57:02;;;;;;;82.28;44.42;;;;;;;4.26;100.00;100617.38;5093967;28;20048;-45
2023/12/29 01:59:32;;;;;;;72.22;41.72;;;;;;;4.29;100.00;100609.34;5094527;28;20052;-43
2023/12/29 02:02:02;;;;;;;75.55;43.60;;;;;;;4.28;100.00;100604.97;5095920;28;20101;-44
2023/12/29 02:04:32;;;;;;;76.55;41.92;;;;;;;4.32;100.00;100606.59;5115022;28;20096;-43
2023/12/29 02:07:00;;;;;;;75.20;42.88;;;;;;;4.38;100.00;100606.44;5115528;28;20066;-47
2023/12/29 02:09:29;;;;;;;77.43;43.25;;;;;;;4.32;100.00;100598.69;5117215;27;20052;-43
2023/12/29 02:11:58;;;;;;;77.55;44.20;;;;;;;4.46;100.00;100608.88;5102622;28;20192;-42
2023/12/29 02:14:26;;;;;;;77.30;42.53;;;;;;;4.51;100.00;100609.56;5101629;28;20193;-52
2023/12/29 02:17:03;;;;;;;74.78;42.25;;;;;;;4.39;100.00;100605.53;5097102;28;20101;-41
2023/12/29 02:19:39;;;;;;;76.85;43.15;;;;;;;4.33;100.00;100616.25;5094150;28;20400;-43
2023/12/29 02:22:09;;;;;;;77.70;43.97;;;;;;;4.43;100.00;100612.44;5099332;28;20480;-43
2023/12/29 02:24:39;;;;;;;75.28;42.63;;;;;;;4.49;100.00;100617.56;5114052;28;20048;-44
2023/12/29 02:27:19;;;;;;;80.28;44.15;;;;;;;4.27;100.00;100603.25;5114954;28;20044;-43
2023/12/29 02:29:57;;;;;;;80.05;42.95;;;;;;;4.06;100.00;100610.00;5113957;28;20075;-42
2023/12/29 02:32:27;;;;;;;73.70;42.83;;;;;;;4.19;100.00;100610.53;5113973;27;20044;-42
2023/12/29 02:34:58;;;;;;;77.35;43.83;;;;;;;3.96;100.00;100596.19;5100087;28;20052;-43
2023/12/29 02:37:28;;;;;;;77.20;43.67;;;;;;;3.98;100.00;100599.66;5093191;28;20099;-44
2023/12/29 02:39:57;;;;;;;75.55;42.88;;;;;;;4.10;100.00;100579.09;5094085;28;20505;-42
2023/12/29 02:42:27;;;;;;;76.65;44.05;;;;;;;3.89;100.00;100588.47;5093933;28;20044;-42
2023/12/29 02:44:56;;;;;;;75.43;43.20;;;;;;;3.89;100.00;100584.06;5093623;28;20063;-43
2023/12/29 02:47:24;;;;;;;77.88;43.17;;;;;;;3.82;100.00;100593.06;5103549;28;20056;-43
2023/12/29 02:49:52;;;;;;;77.68;41.10;;;;;;;3.94;100.00;100587.44;5113205;28;20039;-43
2023/12/29 02:52:21;;;;;;;76.80;42.78;;;;;;;4.09;100.00;100590.56;5113138;28;20051;-48
2023/12/29 02:54:49;;;;;;;76.72;42.40;;;;;;;4.07;100.00;100593.25;5113370;28;20327;-43
2023/12/29 02:57:18;;;;;;;77.10;42.00;;;;;;;4.18;100.00;100595.59;5113264;28;20412;-42
2023/12/29 02:59:47;;;;;;;81.13;43.78;;;;;;;3.89;100.00;100594.63;5096217;28;20048;-43
2023/12/29 03:02:16;;;;;;;76.05;42.88;;;;;;;3.97;100.00;100590.00;5092664;28;20041;-43
2023/12/29 03:04:44;;;;;;;75.93;42.83;;;;;;;3.95;100.00;100591.78;5092652;28;20044;-43
2023/12/29 03:07:13;;;;;;;74.75;42.40;;;;;;;4.07;100.00;100577.41;5092555;28;20149;-43
2023/12/29 03:09:41;;;;;;;70.85;41.42;;;;;;;4.20;100.00;100570.00;5092707;28;20040;-43
2023/12/29 03:12:10;;;;;;;78.95;44.08;;;;;;;4.07;100.00;100564.22;5092467;28;20044;-43
2023/12/29 03:14:39;;;;;;;78.20;42.72;;;;;;;4.15;100.00;100566.63;5094390;28;20157;-45
2023/12/29 03:17:09;;;;;;;77.82;43.45;;;;;;;4.20;100.00;100567.38;5113066;28;20508;-43
2023/12/29 03:19:37;;;;;;;73.53;43.25;;;;;;;4.31;100.00;100565.25;5113137;28;20043;-42
2023/12/29 03:22:05;;;;;;;72.53;42.15;;;;;;;4.42;100.00;100563.16;5112994;28;20511;-43
2023/12/29 03:24:36;;;;;;;79.28;43.63;;;;;;;4.31;100.00;100560.84;5112811;28;20047;-44
2023/12/29 03:27:04;;;;;;;72.32;43.15;;;;;;;4.30;100.00;100563.53;5113046;28;20142;-43
2023/12/29 03:29:32;;;;;;;82.38;45.80;;;;;;;3.91;100.00;100560.28;5100461;28;20092;-44
2023/12/29 03:32:01;;;;;;;89.57;47.28;;;;;;;3.77;100.00;100573.84;5093143;28;20055;-43
2023/12/29 03:34:30;;;;;;;88.70;48.20;;;;;;;3.75;100.00;100575.66;5092371;28;20044;-44
2023/12/29 03:36:59;;;;;;;94.80;48.97;;;;;;;3.67;100.00;100575.88;5091936;28;20465;-43
2023/12/29 03:39:27;;;;;;;95.28;50.55;;;;;;;3.55;100.00;100573.53;5099445;28;20071;-43
2023/12/29 03:41:56;;;;;;;87.13;47.30;;;;;;;3.51;100.00;100573.69;5112506;28;20079;-42
2023/12/29 03:44:24;;;;;;;95.97;50.22;;;;;;;3.43;100.00;100569.47;5112445;28;20044;-42
2023/12/29 03:46:52;;;;;;;92.30;49.65;;;;;;;3.58;100.00;100572.63;5112140;28;20130;-43
2023/12/29 03:49:20;;;;;;;99.03;51.28;;;;;;;3.67;100.00;100562.69;5104448;28;20127;-43
2023/12/29 03:51:50;;;;;;;93.68;50.58;;;;;;;3.52;100.00;100572.78;5092052;28;20048;-42
2023/12/29 03:54:21;;;;;;;99.88;52.50;;;;;;;3.78;100.00;100580.88;5091815;28;20363;-44
2023/12/29 03:56:49;;;;;;;94.88;50.25;;;;;;;3.70;100.00;100583.69;5091794;28;20117;-44
2023/12/29 03:59:18;;;;;;;102.85;49.85;;;;;;;3.74;100.00;100584.47;5097642;28;20047;-42
2023/12/29 04:01:46;;;;;;;105.68;51.05;;;;;;;3.82;100.00;100587.78;5111508;28;20058;-45
2023/12/29 04:04:15;;;;;;;104.90;50.78;;;;;;;3.63;100.00;100575.97;5107922;27;20051;-42
2023/12/29 04:06:43;;;;;;;101.10;49.35;;;;;;;3.78;100.00;100585.28;5091320;28;20040;-42
2023/12/29 04:09:13;;;;;;;111.60;52.90;;;;;;;3.73;100.00;100585.38;5091653;28;20044;-43
2023/12/29 04:11:41;;;;;;;109.35;52.03;;;;;;;3.65;100.00;100579.44;5091670;28;20044;-43
2023/12/29 04:14:12;;;;;;;109.72;50.42;;;;;;;3.33;100.00;100582.91;5091451;28;20051;-43
2023/12/29 04:16:41;;;;;;;117.85;52.50;;;;;;;3.31;100.00;100572.41;5108482;28;20048;-41
2023/12/29 04:19:10;;;;;;;121.20;53.40;;;;;;;3.29;100.00;100597.97;5111373;28;20044;-43
2023/12/29 04:21:40;;;;;;;124.68;52.38;;;;;;;3.14;100.00;100582.50;5106651;28;20047;-43
2023/12/29 04:24:08;;;;;;;118.00;52.13;;;;;;;3.33;100.00;100586.41;5093067;28;20083;-45
2023/12/29 04:26:38;;;;;;;122.95;53.22;;;;;;;3.36;100.00;100591.59;5111323;28;20495;-43
2023/12/29 04:29:06;;;;;;;124.85;53.83;;;;;;;3.12;100.00;100584.31;5111794;28;20044;-44
2023/12/29 04:31:34;;;;;;;113.05;51.97;;;;;;;3.33;100.00;100585.56;5111266;28;20043;-43
2023/12/29 04:34:03;;;;;;;114.55;49.05;;;;;;;3.40;100.00;100587.16;5108903;28;20050;-43
2023/12/29 04:36:31;;;;;;;115.78;48.72;;;;;;;3.28;100.00;100585.69;5097021;28;20105;-43
2023/12/29 04:39:00;;;;;;;106.10;46.17;;;;;;;3.45;100.00;100585.25;5096349;28;20522;-44
2023/12/29 04:41:31;;;;;;;97.88;45.70;;;;;;;3.38;100.00;100588.97;5099549;28;20101;-43
2023/12/29 04:44:00;;;;;;;88.53;43.33;;;;;;;3.28;100.00;100577.78;5096942;28;20070;-43
2023/12/29 04:46:29;;;;;;;84.32;39.38;;;;;;;3.04;100.00;100576.59;5090680;28;20080;-43
2023/12/29 04:48:57;;;;;;;78.93;39.40;;;;;;;2.91;100.00;100574.31;5090747;28;20396;-43
2023/12/29 04:51:26;;;;;;;87.25;38.83;;;;;;;2.82;100.00;100580.66;5111174;28;20044;-43
2023/12/29 04:53:54;;;;;;;96.32;39.92;;;;;;;2.62;100.00;100586.38;5111012;28;20062;-44
2023/12/29 04:56:22;;;;;;;91.13;39.80;;;;;;;2.61;100.00;100582.00;5110982;28;20039;-44
2023/12/29 04:58:52;;;;;;;87.80;41.10;;;;;;;2.94;100.00;100587.41;5098773;28;20098;-43
2023/12/29 05:01:22;;;;;;;106.80;41.83;;;;;;;2.67;100.00;100587.13;5091670;28;20676;-44
2023/12/29 05:03:50;;;;;;;86.85;39.58;;;;;;;2.62;100.00;100589.00;5110432;28;20043;-43
2023/12/29 05:06:19;;;;;;;84.57;40.05;;;;;;;2.51;100.00;100589.25;5110624;28;20142;-43
2023/12/29 05:08:47;;;;;;;88.38;39.35;;;;;;;2.66;100.00;100580.13;5105259;28;20125;-44
2023/12/29 05:11:15;;;;;;;97.68;37.80;;;;;;;2.42;100.00;100591.22;5110420;28;20503;-42
2023/12/29 05:13:44;;;;;;;95.20;38.63;;;;;;;2.28;100.00;100599.38;5110833;28;20047;-44
2023/12/29 05:16:14;;;;;;;100.47;39.13;;;;;;;2.37;100.00;100593.06;5109470;28;20044;-42
2023/12/29 05:18:44;;;;;;;88.68;37.90;;;;;;;2.40;100.00;100593.00;5110782;28;20213;-43
2023/12/29 05:21:16;;;;;;;99.53;41.25;;;;;;;2.21;100.00;100587.25;5098116;28;20105;-43
2023/12/29 05:23:45;;;;;;;80.30;38.67;;;;;;;2.38;100.00;100597.44;5090393;28;20051;-42
2023/12/29 05:26:13;;;;;;;86.47;40.22;;;;;;;2.73;100.00;100602.81;5090321;28;20508;-44
2023/12/29 05:28:41;;;;;;;76.72;37.58;;;;;;;2.95;100.00;100602.31;5090542;28;20044;-43
2023/12/29 05:31:10;;;;;;;72.00;36.92;;;;;;;3.11;100.00;100599.28;5090583;28;20103;-43
2023/12/29 05:33:38;;;;;;;75.85;38.17;;;;;;;3.16;100.00;100596.50;5100662;28;20489;-43
2023/12/29 05:36:09;;;;;;;129.00;36.67;;;;;;;2.88;100.00;100602.44;5111236;28;20454;-44
2023/12/29 05:38:39;;;;;;;77.10;34.88;;;;;;;3.06;100.00;100600.28;5110814;28;20047;-44
2023/12/29 05:41:08;;;;;;;71.70;35.05;;;;;;;3.04;100.00;100604.72;5110956;28;20473;-48
2023/12/29 05:43:36;;;;;;;73.32;34.28;;;;;;;3.07;100.00;100612.53;5110877;28;20087;-43
2023/12/29 05:46:11;;;;;;;150.20;34.63;;;;;;;2.71;100.00;100614.28;5097261;28;20044;-43
2023/12/29 05:48:40;;;;;;;68.35;34.35;;;;;;;2.79;100.00;100622.84;5089919;28;20131;-44
2023/12/29 05:51:14;;;;;;;97.82;32.55;;;;;;;2.72;100.00;100627.41;5090539;28;20469;-44
2023/12/29 05:53:44;;;;;;;81.43;30.08;;;;;;;2.85;100.00;100620.09;5090505;28;20489;-43
2023/12/29 05:56:13;;;;;;;97.38;32.00;;;;;;;2.80;100.00;100614.94;5090581;28;20051;-43
2023/12/29 05:58:42;;;;;;;59.55;30.45;;;;;;;2.78;100.00;100614.09;5096943;28;20047;-43
2023/12/29 06:01:11;;;;;;;59.95;30.88;;;;;;;2.96;100.00;100609.31;5110536;28;20093;-43
2023/12/29 06:03:40;;;;;;;60.25;30.92;;;;;;;2.95;100.00;100613.72;5110354;28;20425;-43
2023/12/29 06:06:08;;;;;;;84.90;29.83;;;;;;;2.68;100.00;100617.81;5110507;28;20509;-44
2023/12/29 06:08:38;;;;;;;61.95;29.83;;;;;;;2.79;100.00;100622.84;5110410;28;20043;-43
2023/12/29 06:11:07;;;;;;;75.35;28.70;;;;;;;2.75;100.00;100626.47;5097303;28;20498;-42
2023/12/29 06:13:35;;;;;;;53.95;28.67;;;;;;;2.92;100.00;100629.59;5081147;28;20051;-45
2023/12/29 06:16:04;;;;;;;59.00;29.42;;;;;;;3.10;100.00;100628.31;5113905;27;20093;-44
2023/12/29 06:18:33;;;;;;;57.92;28.58;;;;;;;3.09;100.00;100621.31;5100444;28;20063;-44
2023/12/29 06:21:03;;;;;;;51.95;28.15;;;;;;;3.09;100.00;100622.19;5094261;28;20040;-42
2023/12/29 06:23:31;;;;;;;55.00;28.25;;;;;;;3.24;100.00;100615.66;5094098;28;20048;-43
2023/12/29 06:26:01;;;;;;;53.70;28.92;;;;;;;3.31;100.00;100616.38;5112060;28;20126;-44
2023/12/29 06:28:29;;;;;;;49.60;28.02;;;;;;;3.38;100.00;100608.28;5114084;28;20050;-43
2023/12/29 06:30:58;;;;;;;52.17;29.08;;;;;;;3.44;100.00;100608.09;5113644;28;20061;-44
2023/12/29 06:33:26;;;;;;;52.88;27.45;;;;;;;3.38;100.00;100613.56;5113944;28;20054;-42
2023/12/29 06:35:54;;;;;;;59.75;27.75;;;;;;;3.19;100.00;100612.28;5113572;28;20135;-42
2023/12/29 06:38:23;;;;;;;54.72;29.60;;;;;;;3.28;100.00;100617.31;5093333;28;20100;-43
2023/12/29 06:40:52;;;;;;;59.72;27.95;;;;;;;3.29;100.00;100612.91;5093286;28;20136;-42
2023/12/29 06:43:21;;;;;;;52.40;28.23;;;;;;;3.12;100.00;100624.72;5073213;28;20052;-44
2023/12/29 06:45:49;;;;;;;56.08;29.63;;;;;;;3.25;100.00;100620.03;5073317;28;20049;-43
2023/12/29 06:48:21;;;;;;;51.50;27.40;;;;;;;3.33;100.00;100615.44;5073225;28;20091;-45
2023/12/29 06:50:49;;;;;;;53.80;29.05;;;;;;;3.34;100.00;100621.56;5072690;28;20125;-43
2023/12/29 06:53:17;;;;;;;51.00;29.23;;;;;;;3.38;100.00;100623.25;5102231;28;20073;-42
2023/12/29 06:55:46;;;;;;;57.42;29.60;;;;;;;3.37;100.00;100621.47;5092677;28;20040;-42
2023/12/29 06:58:14;;;;;;;54.45;28.13;;;;;;;3.35;100.00;100616.25;5092586;28;20051;-42
2023/12/29 07:00:44;;;;;;;67.13;29.95;;;;;;;3.18;100.00;100623.69;5097682;28;20039;-43
2023/12/29 07:03:14;;;;;;;51.33;28.70;;;;;;;3.12;100.00;100623.88;5113039;28;20048;-43
2023/12/29 07:05:43;;;;;;;62.05;29.75;;;;;;;2.92;100.00;100619.06;5113664;28;20431;-43
2023/12/29 07:08:14;;;;;;;56.38;30.45;;;;;;;3.10;100.00;100623.03;5113762;28;20043;-42
2023/12/29 07:10:43;;;;;;;69.32;31.85;;;;;;;2.98;100.00;100618.03;5114746;28;20043;-42
2023/12/29 07:13:11;;;;;;;69.95;32.58;;;;;;;2.64;100.00;100629.34;5112925;28;20414;-43
2023/12/29 07:15:40;;;;;;;71.65;32.65;;;;;;;2.55;100.00;100629.53;5113838;28;20476;-43
2023/12/29 07:18:10;;;;;;;65.32;33.40;;;;;;;2.93;100.00;100620.78;5113802;28;20104;-43
2023/12/29 07:20:38;;;;;;;62.95;32.00;;;;;;;3.15;100.00;100626.41;5093566;28;20056;-42
2023/12/29 07:23:07;;;;;;;77.75;32.92;;;;;;;2.80;100.00;100625.47;5092373;28;20055;-42
2023/12/29 07:25:35;;;;;;;73.97;33.63;;;;;;;2.75;100.00;100622.06;5092023;28;20466;-44
2023/12/29 07:28:06;;;;;;;72.95;33.30;;;;;;;2.54;100.00;100623.41;5092513;28;20408;-44
2023/12/29 07:30:34;;;;;;;69.22;32.40;;;;;;;2.33;100.00;100636.16;5092378;28;20429;-43
2023/12/29 07:33:03;;;;;;;70.30;32.88;;;;;;;2.47;100.00;100639.38;5092116;28;20109;-42
2023/12/29 07:35:33;;;;;;;86.55;34.85;;;;;;;2.08;100.00;100639.25;5103482;28;20051;-42
2023/12/29 07:38:01;;;;;;;74.32;35.38;;;;;;;2.30;100.00;100634.44;5112406;28;20134;-44
2023/12/29 07:40:30;;;;;;;67.15;33.67;;;;;;;2.46;100.00;100627.09;5093292;28;20070;-42
2023/12/29 07:42:58;;;;;;;66.30;33.72;;;;;;;2.71;100.00;100617.78;5092064;28;20051;-43
2023/12/29 07:45:26;;;;;;;73.53;33.80;;;;;;;2.45;100.00;100612.22;5071583;28;20122;-44
2023/12/29 07:47:55;;;;;;;77.72;34.65;;;;;;;2.47;100.00;100610.41;5095777;28;20218;-42
2023/12/29 07:50:24;;;;;;;60.13;33.13;;;;;;;2.84;100.00;100621.84;5112506;28;20043;-44
2023/12/29 07:52:54;;;;;;;62.90;32.83;;;;;;;2.90;100.00;100625.28;5112998;28;20047;-43
2023/12/29 07:55:22;;;;;;;64.07;32.58;;;;;;;3.18;100.00;100618.41;5112290;28;20048;-43
2023/12/29 07:57:52;;;;;;;60.40;32.35;;;;;;;3.35;100.00;100613.63;5107877;28;20040;-44
2023/12/29 08:00:21;;;;;;;55.08;30.25;;;;;;;3.36;100.00;100607.44;5101400;28;20131;-43
2023/12/29 08:02:51;;;;;;;55.28;30.13;;;;;;;3.25;100.00;100612.09;5098251;28;20491;-43
2023/12/29 08:05:20;;;;;;;57.70;30.88;;;;;;;3.13;100.00;100620.31;5092051;28;20109;-43
2023/12/29 08:07:48;;;;;;;56.90;32.13;;;;;;;3.23;100.00;100627.09;5091921;28;20055;-45
2023/12/29 08:10:18;;;;;;;54.53;31.48;;;;;;;3.33;100.00;100623.34;5091354;28;20465;-43
2023/12/29 08:12:47;;;;;;;57.25;31.98;;;;;;;3.33;100.00;100620.69;5095912;28;20136;-44
2023/12/29 08:15:16;;;;;;;67.03;32.53;;;;;;;3.13;100.00;100633.50;5096129;28;20043;-43
2023/12/29 08:17:45;;;;;;;64.78;32.45;;;;;;;2.78;100.00;100637.78;5097734;28;20120;-43
2023/12/29 08:20:13;;;;;;;59.10;33.20;;;;;;;2.84;100.00;100629.75;5098427;28;20101;-42
2023/12/29 08:22:42;;;;;;;66.45;34.13;;;;;;;2.72;100.00;100632.69;5095477;28;20400;-43
2023/12/29 08:25:11;;;;;;;59.92;33.38;;;;;;;2.91;100.00;100648.09;5096917;28;20050;-43
2023/12/29 08:27:41;;;;;;;68.13;35.08;;;;;;;2.95;100.00;100645.31;5093726;28;20511;-44
2023/12/29 08:30:10;;;;;;;72.13;34.30;;;;;;;3.30;100.00;100643.66;5096051;28;20429;-43
2023/12/29 08:32:39;;;;;;;62.33;34.85;;;;;;;3.08;100.00;100638.00;5098139;28;20135;-43
2023/12/29 08:35:08;;;;;;;66.97;35.28;;;;;;;3.34;100.00;100646.16;5096713;28;20044;-43
2023/12/29 08:37:37;;;;;;;63.75;35.40;;;;;;;3.36;100.00;100639.06;5097413;28;20094;-42
2023/12/29 08:40:07;;;;;;;66.20;35.65;;;;;;;3.15;100.00;100636.97;5096215;28;20066;-42
2023/12/29 08:42:36;;;;;;;67.03;36.92;;;;;;;3.48;100.00;100643.19;5096458;28;20052;-44
2023/12/29 08:45:07;;;;;;;65.18;34.35;;;;;;;3.20;100.00;100640.38;5097558;28;20047;-41
2023/12/29 08:47:36;;;;;;;67.63;37.63;;;;;;;3.02;100.00;100644.28;5100666;28;20044;-43
2023/12/29 08:50:06;;;;;;;67.55;36.95;;;;;;;3.30;100.00;100647.16;5096337;28;20101;-43
2023/12/29 08:52:34;;;;;;;64.63;36.95;;;;;;;3.35;100.00;100639.97;5103380;28;20069;-43
2023/12/29 08:55:05;;;;;;;70.82;37.60;;;;;;;3.05;100.00;100646.84;5095008;28;20044;-42
2023/12/29 08:57:34;;;;;;;69.30;38.35;;;;;;;2.93;100.00;100638.38;5097396;28;20048;-44
2023/12/29 09:00:02;;;;;;;78.15;39.35;;;;;;;3.01;100.00;100633.78;5095791;28;20044;-42
2023/12/29 09:02:33;;;;;;;72.20;37.55;;;;;;;3.21;100.00;100636.81;5097715;28;20126;-42
2023/12/29 09:05:01;;;;;;;71.22;38.47;;;;;;;3.53;100.00;100641.31;5096335;28;20074;-43
2023/12/29 09:07:30;;;;;;;72.88;37.40;;;;;;;3.80;100.00;100645.00;5097185;28;20156;-43
2023/12/29 09:09:58;;;;;;;69.03;38.13;;;;;;;3.63;100.00;100650.72;5096046;28;20097;-44
2023/12/29 09:12:27;;;;;;;67.75;38.25;;;;;;;3.59;100.00;100645.56;5097699;28;20044;-43
2023/12/29 09:14:56;;;;;;;72.35;39.15;;;;;;;3.53;100.00;100649.22;5097262;28;20040;-44
2023/12/29 09:17:24;;;;;;;72.13;37.78;;;;;;;3.63;100.00;100644.56;5096552;28;20726;-43
2023/12/29 09:19:54;;;;;;;67.13;37.80;;;;;;;3.53;100.00;100638.66;5100929;28;20043;-43
2023/12/29 09:22:34;;;;;;;63.67;35.50;;;;;;;3.82;100.00;100629.13;5091281;28;20044;-42
2023/12/29 09:25:02;;;;;;;63.05;35.05;;;;;;;3.69;100.00;100631.25;5098349;28;20044;-43
2023/12/29 09:27:31;;;;;;;63.28;35.08;;;;;;;3.74;100.00;100637.25;5095808;28;20044;-43
2023/12/29 09:30:00;;;;;;;59.08;33.05;;;;;;;3.93;100.00;100643.78;5096037;28;20059;-43
2023/12/29 09:32:28;;;;;;;63.05;34.88;;;;;;;3.92;100.00;100642.03;5093760;28;20158;-43
2023/12/29 09:34:58;;;;;;;62.42;34.22;;;;;;;4.12;100.00;100627.44;5108578;28;20044;-43
2023/12/29 09:37:26;;;;;;;64.80;34.08;;;;;;;4.06;100.00;100632.91;5090570;28;20067;-42
2023/12/29 09:39:55;;;;;;;64.32;34.85;;;;;;;4.05;100.00;100633.78;5091988;28;20150;-42
2023/12/29 09:42:23;;;;;;;63.78;34.30;;;;;;;4.18;100.00;100635.19;5092378;28;20127;-43
2023/12/29 09:44:53;;;;;;;62.67;35.05;;;;;;;4.24;100.00;100629.72;5101593;28;20558;-43
2023/12/29 09:47:24;;;;;;;66.22;36.40;;;;;;;4.40;100.00;100625.75;5094915;28;20062;-42
2023/12/29 09:49:53;;;;;;;67.22;35.55;;;;;;;4.44;100.00;100619.47;5096827;28;20138;-43
2023/12/29 09:52:24;;;;;;;69.35;37.28;;;;;;;4.46;100.00;100622.94;5094019;28;20098;-43
2023/12/29 09:54:53;;;;;;;67.22;36.15;;;;;;;4.55;100.00;100622.66;5099349;28;20067;-43
2023/12/29 09:57:22;;;;;;;64.97;35.45;;;;;;;4.56;100.00;100632.31;5096142;28;20501;-42
2023/12/29 09:59:52;;;;;;;68.13;35.75;;;;;;;4.64;100.00;100620.66;5098652;28;20048;-43
2023/12/29 10:02:23;;;;;;;76.70;39.78;;;;;;;4.74;100.00;100616.84;5098860;28;20047;-43
2023/12/29 10:04:51;;;;;;;133.52;64.65;;;;;;;5.03;100.00;100605.34;5099620;28;20193;-43
2023/12/29 10:07:26;;;;;;;67.90;37.88;;;;;;;4.99;100.00;100606.34;5096338;28;20130;-42
2023/12/29 10:09:58;;;;;;;63.30;36.35;;;;;;;5.21;100.00;100596.84;5100035;28;20079;-44
2023/12/29 10:12:29;;;;;;;65.90;35.53;;;;;;;5.30;100.00;100603.56;5097865;28;20068;-43
2023/12/29 10:15:08;;;;;;;61.10;35.42;;;;;;;5.35;100.00;100596.38;5097606;28;20055;-41
2023/12/29 10:17:45;;;;;;;58.47;34.47;;;;;;;5.39;100.00;100596.19;5097571;28;20100;-43
2023/12/29 10:20:24;;;;;;;60.80;33.60;;;;;;;5.47;100.00;100593.31;5097856;28;20485;-41
2023/12/29 10:23:05;;;;;;;59.03;34.25;;;;;;;5.44;100.00;100590.78;5098272;28;20064;-41
2023/12/29 10:25:34;;;;;;;60.85;34.50;;;;;;;5.59;100.00;100592.00;5091575;28;20492;-42
2023/12/29 10:28:03;;;;;;;58.28;33.90;;;;;;;5.69;100.00;100583.72;5098847;28;20046;-42
2023/12/29 10:30:32;;;;;;;61.47;33.97;;;;;;;5.72;100.00;100578.31;5102356;28;20142;-47
2023/12/29 10:33:04;;;;;;;58.58;33.88;;;;;;;5.90;100.00;100570.66;5096875;28;20040;-41
2023/12/29 10:35:37;;;;;;;91.47;37.35;;;;;;;5.85;100.00;100573.44;5094954;28;20052;-42
2023/12/29 10:38:11;;;;;;;87.53;41.80;;;;;;;6.11;100.00;100569.91;5101127;28;20044;-41
2023/12/29 10:40:40;;;;;;;86.53;45.13;;;;;;;6.27;100.00;100564.88;5097864;28;20605;-42
2023/12/29 10:43:09;;;;;;;69.50;36.38;;;;;;;6.18;100.00;100571.41;5098677;28;20441;-42
2023/12/29 10:45:37;;;;;;;62.88;34.95;;;;;;;6.45;100.00;100564.19;5096078;28;20142;-42
2023/12/29 10:48:07;;;;;;;61.13;33.75;;;;;;;6.64;100.00;100560.81;5098811;28;20493;-43
2023/12/29 10:50:44;;;;;;;57.38;34.00;;;;;;;6.69;100.00;100549.13;5087833;28;20528;-42
2023/12/29 10:53:14;;;;;;;54.35;33.13;;;;;;;6.76;100.00;100553.28;5091975;28;20044;-42
2023/12/29 10:55:43;;;;;;;56.47;34.00;;;;;;;7.10;100.00;100551.91;5092612;28;20694;-41
2023/12/29 10:58:11;;;;;;;53.42;31.88;;;;;;;7.22;100.00;100555.84;5094373;28;20088;-43
2023/12/29 11:00:39;;;;;;;53.60;31.38;;;;;;;7.16;100.00;100555.19;5093431;28;20071;-42
2023/12/29 11:03:08;;;;;;;50.85;31.48;;;;;;;7.35;100.00;100546.44;5093714;28;20131;-41
2023/12/29 11:05:37;;;;;;;50.08;31.20;;;;;;;7.31;100.00;100545.69;5094728;28;20127;-42
2023/12/29 11:08:17;;;;;;;48.42;30.55;;;;;;;7.25;100.00;100534.50;5092046;28;20481;-42
2023/12/29 11:10:47;;;;;;;50.72;30.17;;;;;;;7.36;100.00;100527.81;5098203;28;20048;-42
2023/12/29 11:13:16;;;;;;;47.35;30.70;;;;;;;7.39;100.00;100521.50;5099096;28;20485;-42
2023/12/29 11:15:48;;;;;;;50.65;31.23;;;;;;;7.49;100.00;100527.28;5092049;28;20044;-42
2023/12/29 11:18:18;;;;;;;51.00;30.83;;;;;;;7.46;100.00;100523.84;5101982;28;20066;-42
2023/12/29 11:20:47;;;;;;;55.35;32.33;;;;;;;7.57;100.00;100518.06;5112471;28;20043;-41